Time;durP1;ratioP1;P1;durP2;ratioP2;P2;SDS_P1;SDS_P2;PMS_P1;PMS_P2;Temp;Humidity;BMP_temperature;BMP_pressure;BME280_temperature;BME280_humidity;BME280_pressure;Samples;Min_cycle;Max_cycle;Signal;HPM_P1;HPM_P2
2022/08/22 00:01:12;;;;;;;10.48;8.10;;;15.10;99.90;;;;;;2073885;28;20779;-76
2022/08/22 00:02:25;;;;;;;10.75;8.30;;;15.10;99.90;;;;;;2074754;28;20497;-76
2022/08/22 00:03:39;;;;;;;11.63;9.25;;;15.20;99.90;;;;;;2074406;28;20037;-76
2022/08/22 00:05:06;;;;;;;12.02;9.38;;;15.20;99.90;;;;;;2073776;28;20407;-76
2022/08/22 00:06:49;;;;;;;15.52;10.07;;;15.20;99.90;;;;;;2066793;28;20069;-76
2022/08/22 00:08:02;;;;;;;13.43;9.48;;;15.10;99.90;;;;;;2056838;28;20101;-77
2022/08/22 00:09:16;;;;;;;11.80;8.50;;;15.10;99.90;;;;;;2072444;28;20137;-77
2022/08/22 00:10:27;;;;;;;11.75;8.43;;;15.10;99.90;;;;;;2073309;28;20048;-76
2022/08/22 00:11:35;;;;;;;8.70;7.50;;;15.10;99.90;;;;;;2066616;28;20658;-75
2022/08/22 00:12:41;;;;;;;9.75;7.40;;;15.10;99.90;;;;;;2073635;28;20105;-76
2022/08/22 00:13:46;;;;;;;8.52;7.20;;;15.10;99.90;;;;;;2074699;28;20567;-77
2022/08/22 00:15:05;;;;;;;8.02;7.00;;;15.10;99.90;;;;;;2073748;28;20046;-76
2022/08/22 00:16:14;;;;;;;11.00;7.25;;;15.10;99.90;;;;;;2074175;28;20036;-76
2022/08/22 00:17:22;;;;;;;7.72;6.95;;;15.10;99.90;;;;;;2073674;28;20587;-78
2022/08/22 00:18:42;;;;;;;9.30;7.10;;;15.10;99.90;;;;;;2074752;28;20720;-77
2022/08/22 00:20:11;;;;;;;9.97;6.80;;;15.00;99.90;;;;;;2079269;28;20025;-76
2022/08/22 00:21:50;;;;;;;7.55;6.75;;;15.00;99.90;;;;;;2073921;28;20026;-75
2022/08/22 00:23:10;;;;;;;8.23;7.20;;;15.00;99.90;;;;;;2073269;28;20120;-77
2022/08/22 00:24:36;;;;;;;10.75;7.10;;;15.00;99.90;;;;;;2073518;28;20084;-76
2022/08/22 00:26:04;;;;;;;8.88;7.07;;;15.00;99.90;;;;;;2073813;28;20408;-76
2022/08/22 00:27:34;;;;;;;7.70;6.90;;;15.00;99.90;;;;;;2074143;28;20028;-76
2022/08/22 00:28:40;;;;;;;9.38;7.20;;;15.00;99.90;;;;;;2073458;28;20030;-75
2022/08/22 00:29:46;;;;;;;8.20;7.07;;;14.90;99.90;;;;;;2065315;28;20034;-75
2022/08/22 00:30:53;;;;;;;9.48;7.72;;;14.90;99.90;;;;;;2067247;28;20041;-76
2022/08/22 00:32:28;;;;;;;9.70;7.50;;;14.90;99.90;;;;;;2074564;28;20045;-76
2022/08/22 00:33:47;;;;;;;9.20;7.40;;;14.90;99.90;;;;;;2074436;28;20575;-76
2022/08/22 00:34:57;;;;;;;8.90;7.30;;;14.90;99.90;;;;;;2074766;28;20030;-76
2022/08/22 00:36:30;;;;;;;8.80;7.15;;;14.90;99.90;;;;;;2076643;28;20057;-76
2022/08/22 00:38:01;;;;;;;9.55;7.38;;;14.90;99.90;;;;;;2073430;28;20082;-76
2022/08/22 00:39:20;;;;;;;7.68;6.70;;;14.90;99.90;;;;;;2075283;28;20061;-76
2022/08/22 00:41:10;;;;;;;7.63;6.80;;;14.90;99.90;;;;;;2074475;28;20042;-75
2022/08/22 00:42:46;;;;;;;8.43;7.40;;;14.80;99.90;;;;;;2076128;28;20129;-76
2022/08/22 00:44:35;;;;;;;9.23;6.93;;;14.80;99.90;;;;;;2076386;28;20026;-77
2022/08/22 00:45:47;;;;;;;8.75;7.05;;;14.80;99.90;;;;;;2058714;28;20230;-75
2022/08/22 00:47:30;;;;;;;8.52;7.13;;;14.80;99.90;;;;;;2076813;28;20109;-77
2022/08/22 00:48:38;;;;;;;8.07;7.13;;;14.80;99.90;;;;;;2076387;28;20034;-76
2022/08/22 00:49:59;;;;;;;9.43;7.57;;;14.80;99.90;;;;;;2075203;28;20037;-76
2022/08/22 00:51:15;;;;;;;8.05;6.80;;;14.80;99.90;;;;;;2074695;28;20080;-76
2022/08/22 00:52:31;;;;;;;9.05;6.88;;;14.80;99.90;;;;;;2074722;28;20026;-77
2022/08/22 00:53:56;;;;;;;8.57;7.57;;;14.80;99.90;;;;;;2080389;28;20192;-78
2022/08/22 00:55:44;;;;;;;9.38;7.35;;;14.80;99.90;;;;;;2070587;28;20032;-74
2022/08/22 00:57:02;;;;;;;8.20;6.97;;;14.70;99.90;;;;;;2055104;28;20039;-77
2022/08/22 00:58:23;;;;;;;9.73;7.00;;;14.70;99.90;;;;;;2060298;28;20062;-76
2022/08/22 00:59:30;;;;;;;7.88;7.07;;;14.70;99.90;;;;;;2074291;28;20531;-75
2022/08/22 01:00:39;;;;;;;7.85;7.05;;;14.70;99.90;;;;;;2074370;28;20052;-77
2022/08/22 01:01:51;;;;;;;7.60;6.80;;;14.70;99.90;;;;;;2073628;28;20037;-76
2022/08/22 01:03:25;;;;;;;8.20;7.40;;;14.70;99.90;;;;;;2073551;28;20473;-75
2022/08/22 01:04:38;;;;;;;8.13;7.20;;;14.70;99.90;;;;;;2070101;28;20552;-77
2022/08/22 01:06:01;;;;;;;8.73;7.18;;;14.70;99.90;;;;;;2076766;28;20022;-77
2022/08/22 01:07:56;;;;;;;11.32;7.20;;;14.70;99.90;;;;;;2069642;28;20072;-74
2022/08/22 01:09:20;;;;;;;8.77;7.53;;;14.70;99.90;;;;;;2064727;28;20563;-77
2022/08/22 01:10:48;;;;;;;8.20;7.25;;;14.70;99.90;;;;;;2065546;28;20070;-75
2022/08/22 01:12:10;;;;;;;10.60;7.57;;;14.70;99.90;;;;;;2075130;28;20022;-77
2022/08/22 01:13:35;;;;;;;9.20;7.25;;;14.70;99.90;;;;;;2073804;28;20477;-74
2022/08/22 01:15:02;;;;;;;9.40;7.47;;;14.70;99.90;;;;;;2064962;28;20134;-76
2022/08/22 01:16:38;;;;;;;9.23;7.47;;;14.60;99.90;;;;;;2068710;28;20026;-75
2022/08/22 01:18:04;;;;;;;9.18;7.75;;;14.70;99.90;;;;;;2074061;28;20477;-75
2022/08/22 01:19:26;;;;;;;8.63;7.30;;;14.70;99.90;;;;;;2078226;28;20109;-77
2022/08/22 01:20:45;;;;;;;8.80;7.35;;;14.70;99.90;;;;;;2074199;28;20045;-77
2022/08/22 01:22:17;;;;;;;9.90;7.18;;;14.70;99.90;;;;;;2068469;28;20038;-76
2022/08/22 01:23:32;;;;;;;8.75;7.50;;;14.70;99.90;;;;;;2073400;28;20456;-75
2022/08/22 01:26:38;;;;;;;9.73;7.35;;;14.70;99.90;;;;;;2073641;28;20022;-75
2022/08/22 01:28:15;;;;;;;9.68;7.60;;;14.60;99.90;;;;;;2073359;28;20065;-75
2022/08/22 01:29:18;;;;;;;9.48;7.50;;;14.70;99.90;;;;;;2070163;28;20423;-75
2022/08/22 01:30:56;;;;;;;11.43;7.53;;;14.60;99.90;;;;;;2065462;28;20034;-75
2022/08/22 01:32:16;;;;;;;9.48;7.35;;;14.60;99.90;;;;;;2073763;28;20026;-77
2022/08/22 01:33:16;;;;;;;9.00;7.47;;;14.70;99.90;;;;;;2073707;28;20038;-74
2022/08/22 01:34:40;;;;;;;9.00;7.43;;;14.70;99.90;;;;;;2072795;28;20029;-74
2022/08/22 01:35:50;;;;;;;8.38;7.47;;;14.60;99.90;;;;;;2064563;28;20065;-75
2022/08/22 01:37:20;;;;;;;8.30;7.45;;;14.60;99.90;;;;;;2087437;28;20091;-75
2022/08/22 01:38:32;;;;;;;8.90;7.57;;;14.60;99.90;;;;;;2072378;28;20116;-75
2022/08/22 01:40:07;;;;;;;8.63;7.60;;;14.60;99.90;;;;;;2073142;28;20103;-76
2022/08/22 01:41:40;;;;;;;9.45;7.47;;;14.60;99.90;;;;;;2074661;28;20053;-77
2022/08/22 01:43:15;;;;;;;9.70;7.05;;;14.60;99.90;;;;;;2074198;28;20520;-74
2022/08/22 01:44:40;;;;;;;9.23;7.65;;;14.60;99.90;;;;;;2073169;28;20480;-75
2022/08/22 01:46:05;;;;;;;7.55;6.85;;;14.60;99.90;;;;;;2073589;28;20029;-74
2022/08/22 01:47:41;;;;;;;10.60;7.45;;;14.60;99.90;;;;;;2072771;28;20109;-75
2022/08/22 01:49:15;;;;;;;7.95;7.15;;;14.60;99.90;;;;;;2072828;28;20523;-75
2022/08/22 01:50:40;;;;;;;9.32;7.00;;;14.60;99.90;;;;;;2072831;28;20097;-74
2022/08/22 01:52:03;;;;;;;8.43;6.82;;;14.70;99.90;;;;;;2073140;28;20030;-73
2022/08/22 01:53:22;;;;;;;9.30;7.30;;;14.70;99.90;;;;;;2073700;28;20496;-74
2022/08/22 01:54:53;;;;;;;7.85;7.05;;;14.70;99.90;;;;;;2073894;28;20544;-74
2022/08/22 01:56:08;;;;;;;9.25;6.82;;;14.70;99.90;;;;;;2074262;28;20124;-74
2022/08/22 01:57:11;;;;;;;8.55;7.28;;;14.70;99.90;;;;;;2064947;28;20046;-75
2022/08/22 01:58:22;;;;;;;8.10;6.78;;;14.70;99.90;;;;;;2074293;28;20022;-75
2022/08/22 01:59:35;;;;;;;8.77;6.80;;;14.70;99.90;;;;;;2088418;28;20083;-75
2022/08/22 02:01:15;;;;;;;9.98;7.30;;;14.70;99.90;;;;;;2074320;28;20631;-75
2022/08/22 02:02:51;;;;;;;9.43;7.20;;;14.70;99.90;;;;;;2074897;28;20088;-74
2022/08/22 02:04:04;;;;;;;8.15;7.05;;;14.70;99.90;;;;;;2073407;28;20037;-75
2022/08/22 02:05:23;;;;;;;9.80;6.97;;;14.70;99.90;;;;;;2059165;28;20035;-75
2022/08/22 02:06:53;;;;;;;8.85;6.75;;;14.70;99.90;;;;;;2070049;28;20034;-75
2022/08/22 02:07:54;;;;;;;9.50;7.55;;;14.70;99.90;;;;;;2064516;28;20060;-76
2022/08/22 02:09:02;;;;;;;9.75;7.35;;;14.60;99.90;;;;;;2065210;28;20165;-75
2022/08/22 02:10:43;;;;;;;8.70;7.00;;;14.70;99.90;;;;;;2080707;28;20625;-75
2022/08/22 02:12:13;;;;;;;8.10;6.90;;;14.70;99.90;;;;;;2068154;28;20034;-74
2022/08/22 02:13:45;;;;;;;8.43;7.13;;;14.70;99.90;;;;;;2067003;28;20033;-74
2022/08/22 02:15:01;;;;;;;10.45;7.20;;;14.70;99.90;;;;;;2067987;28;20031;-75
2022/08/22 02:16:35;;;;;;;7.90;6.60;;;14.60;99.90;;;;;;2065918;28;20049;-75
2022/08/22 02:18:05;;;;;;;7.55;6.85;;;14.70;99.90;;;;;;2062114;28;20041;-75
2022/08/22 02:19:14;;;;;;;8.63;7.10;;;14.60;99.90;;;;;;2071867;28;20120;-75
2022/08/22 02:21:10;;;;;;;9.98;7.40;;;14.70;99.90;;;;;;2076898;28;20026;-74
2022/08/22 02:22:18;;;;;;;10.80;7.30;;;14.60;99.90;;;;;;2064890;28;20065;-74
2022/08/22 02:23:29;;;;;;;9.27;7.22;;;14.60;99.90;;;;;;2068434;28;20026;-75
2022/08/22 02:24:32;;;;;;;9.57;7.07;;;14.60;99.90;;;;;;2075819;28;20025;-75
2022/08/22 02:25:55;;;;;;;8.95;7.10;;;14.60;99.90;;;;;;2079003;28;20022;-75
2022/08/22 02:27:18;;;;;;;7.38;6.68;;;14.60;99.90;;;;;;2069684;28;20018;-75
2022/08/22 02:28:50;;;;;;;8.98;7.38;;;14.60;99.90;;;;;;2072567;28;20041;-74
2022/08/22 02:29:56;;;;;;;9.90;6.93;;;14.60;99.90;;;;;;2066317;28;20026;-74
2022/08/22 02:31:14;;;;;;;9.32;7.32;;;14.60;99.90;;;;;;2065267;28;20042;-74
2022/08/22 02:32:44;;;;;;;8.38;6.70;;;14.60;99.90;;;;;;2075033;28;20037;-74
2022/08/22 02:33:45;;;;;;;9.30;6.97;;;14.60;99.90;;;;;;2072824;28;20022;-75
2022/08/22 02:35:34;;;;;;;9.07;7.18;;;14.60;99.90;;;;;;2072672;28;20650;-75
2022/08/22 02:36:58;;;;;;;7.85;7.03;;;14.60;99.90;;;;;;2058925;28;20026;-75
2022/08/22 02:38:35;;;;;;;9.40;7.50;;;14.60;99.90;;;;;;2062968;28;20026;-74
2022/08/22 02:40:11;;;;;;;9.88;7.55;;;14.60;99.90;;;;;;2072717;28;20017;-75
2022/08/22 02:44:03;;;;;;;10.52;7.07;;;14.60;99.90;;;;;;2067943;28;20042;-74
2022/08/22 02:45:37;;;;;;;10.95;7.30;;;14.50;99.90;;;;;;2068585;28;20058;-74
2022/08/22 02:47:30;;;;;;;7.82;6.88;;;14.50;99.90;;;;;;2071415;28;20024;-74
2022/08/22 02:49:25;;;;;;;8.90;7.15;;;14.50;99.90;;;;;;2062005;28;20050;-75
2022/08/22 02:53:00;;;;;;;8.05;7.18;;;14.50;99.90;;;;;;2058839;28;20034;-75
2022/08/22 02:54:28;;;;;;;8.27;7.18;;;14.50;99.90;;;;;;2033034;29;20134;-74
2022/08/22 02:56:02;;;;;;;8.82;6.72;;;14.50;99.90;;;;;;2052304;28;20067;-74
2022/08/22 02:57:51;;;;;;;7.68;6.60;;;14.50;99.90;;;;;;2050881;28;20039;-75
2022/08/22 02:59:15;;;;;;;7.68;6.95;;;14.50;99.90;;;;;;2050054;28;20060;-75
2022/08/22 03:02:35;;;;;;;8.93;7.03;;;14.50;99.90;;;;;;2051031;28;20054;-75
2022/08/22 03:03:47;;;;;;;7.70;6.60;;;14.50;99.90;;;;;;2065169;28;20122;-76
2022/08/22 03:05:32;;;;;;;8.13;6.90;;;14.50;99.90;;;;;;2076464;28;20018;-75
2022/08/22 03:07:02;;;;;;;8.50;6.80;;;14.50;99.90;;;;;;2072026;28;20029;-75
2022/08/22 03:08:18;;;;;;;7.65;6.80;;;14.50;99.90;;;;;;2057352;28;20039;-74
2022/08/22 03:10:09;;;;;;;8.88;7.05;;;14.50;99.90;;;;;;2057784;28;20100;-75
2022/08/22 03:11:25;;;;;;;8.13;7.00;;;14.50;99.90;;;;;;2062722;28;20125;-75
2022/08/22 03:12:53;;;;;;;;;;;;;;;;;;;;;
2022/08/22 03:14:54;;;;;;;7.97;7.10;;;14.50;99.90;;;;;;2068170;28;20109;-75
2022/08/22 03:16:02;;;;;;;7.95;7.10;;;14.50;99.90;;;;;;2068957;28;20027;-75
2022/08/22 03:17:46;;;;;;;8.35;7.15;;;14.50;99.90;;;;;;2071461;28;20018;-74
2022/08/22 03:21:34;;;;;;;7.40;6.57;;;14.50;99.90;;;;;;2065852;28;20027;-74
2022/08/22 03:22:58;;;;;;;8.02;6.60;;;14.50;99.90;;;;;;2036219;29;20040;-74
2022/08/22 03:24:16;;;;;;;7.45;6.55;;;14.50;99.90;;;;;;2057293;28;20460;-74
2022/08/22 03:25:46;;;;;;;9.90;6.90;;;14.50;99.90;;;;;;2064513;28;20030;-74
2022/08/22 03:27:20;;;;;;;8.93;7.15;;;14.50;99.90;;;;;;2059558;28;20038;-74
2022/08/22 03:28:40;;;;;;;8.18;6.68;;;14.50;99.90;;;;;;2063596;28;20081;-74
2022/08/22 03:30:05;;;;;;;8.05;7.10;;;14.50;99.90;;;;;;2063297;28;20105;-74
2022/08/22 03:31:21;;;;;;;8.45;6.63;;;14.60;99.90;;;;;;2064023;28;20042;-74
2022/08/22 03:32:44;;;;;;;8.70;7.10;;;14.60;99.90;;;;;;2064491;28;20026;-74
2022/08/22 03:34:05;;;;;;;7.22;6.53;;;14.50;99.90;;;;;;2063929;28;20500;-74
2022/08/22 03:35:09;;;;;;;;;;;14.60;99.90;;;;;;2058829;28;20023;-74
2022/08/22 03:36:16;;;;;;;8.57;7.63;;;14.60;99.90;;;;;;2065268;28;20051;-76
2022/08/22 03:37:23;;;;;;;9.73;6.93;;;14.60;99.90;;;;;;2064194;28;20030;-74
2022/08/22 03:38:56;;;;;;;8.68;7.20;;;14.60;99.90;;;;;;2065027;28;20030;-75
2022/08/22 03:40:04;;;;;;;7.45;6.65;;;14.60;99.90;;;;;;2060370;28;20030;-75
2022/08/22 03:41:11;;;;;;;8.82;7.15;;;14.60;99.90;;;;;;2071928;28;20758;-75
2022/08/22 03:42:14;;;;;;;8.32;7.20;;;14.70;99.90;;;;;;2064081;28;20029;-75
2022/08/22 03:43:52;;;;;;;8.20;7.00;;;14.60;99.90;;;;;;2063845;28;20027;-75
2022/08/22 03:45:11;;;;;;;7.68;6.88;;;14.70;99.90;;;;;;2064848;28;20053;-75
2022/08/22 03:46:45;;;;;;;9.02;6.88;;;14.70;99.90;;;;;;2064644;28;20096;-75
2022/08/22 03:48:24;;;;;;;7.85;7.05;;;14.70;99.90;;;;;;2063878;28;20507;-75
2022/08/22 03:49:43;;;;;;;8.32;6.85;;;14.70;99.90;;;;;;2065211;28;20396;-75
2022/08/22 03:51:09;;;;;;;9.68;6.78;;;14.70;99.90;;;;;;2064046;28;20030;-75
2022/08/22 03:53:05;;;;;;;9.77;6.57;;;14.80;99.90;;;;;;2064447;28;20030;-75
2022/08/22 03:54:36;;;;;;;9.85;7.30;;;14.70;99.90;;;;;;2064272;28;20420;-75
2022/08/22 03:56:10;;;;;;;7.68;6.78;;;14.80;99.90;;;;;;2064581;28;20050;-75
2022/08/22 03:57:45;;;;;;;9.07;7.30;;;14.80;99.90;;;;;;2064527;28;20077;-76
2022/08/22 03:59:21;;;;;;;8.38;6.97;;;14.70;99.90;;;;;;2056774;28;20501;-75
2022/08/22 04:00:51;;;;;;;10.82;7.43;;;14.70;99.90;;;;;;2052458;28;20106;-76
2022/08/22 04:02:04;;;;;;;9.38;7.57;;;14.70;99.90;;;;;;2059757;28;20186;-75
2022/08/22 04:03:27;;;;;;;9.38;7.38;;;14.70;99.90;;;;;;2064229;28;20501;-75
2022/08/22 04:05:12;;;;;;;8.63;7.38;;;14.70;99.90;;;;;;2063806;28;20597;-74
2022/08/22 04:06:17;;;;;;;8.68;7.07;;;14.70;99.90;;;;;;2064256;28;20023;-75
2022/08/22 04:07:48;;;;;;;7.95;7.10;;;14.70;99.90;;;;;;2064489;28;20037;-74
2022/08/22 04:09:01;;;;;;;8.43;7.50;;;14.70;99.90;;;;;;2064247;28;20027;-74
2022/08/22 04:10:05;;;;;;;9.32;7.35;;;14.70;99.90;;;;;;2064431;28;20504;-75
2022/08/22 04:11:30;;;;;;;8.18;7.10;;;14.60;99.90;;;;;;2064492;28;20022;-74
2022/08/22 04:12:43;;;;;;;9.90;6.75;;;14.70;99.90;;;;;;2064467;28;20023;-75
2022/08/22 04:14:02;;;;;;;9.23;7.18;;;14.70;99.90;;;;;;2063699;28;20031;-74
2022/08/22 04:15:18;;;;;;;9.20;6.93;;;14.60;99.90;;;;;;2063290;28;20536;-74
2022/08/22 04:16:45;;;;;;;7.72;7.00;;;14.60;99.90;;;;;;2065710;28;20421;-75
2022/08/22 04:18:17;;;;;;;10.18;7.32;;;14.60;99.90;;;;;;2063773;28;20038;-75
2022/08/22 04:19:35;;;;;;;11.02;7.53;;;14.60;99.90;;;;;;2064117;28;20034;-74
2022/08/22 04:21:01;;;;;;;8.90;7.03;;;14.60;99.90;;;;;;2063535;28;20038;-75
2022/08/22 04:22:24;;;;;;;7.93;7.13;;;14.60;99.90;;;;;;2063868;28;20030;-74
2022/08/22 04:24:03;;;;;;;9.65;7.20;;;14.60;99.90;;;;;;2064319;28;20022;-73
2022/08/22 04:25:10;;;;;;;8.02;6.90;;;14.60;99.90;;;;;;2063861;28;20034;-74
2022/08/22 04:26:21;;;;;;;7.57;6.88;;;14.60;99.90;;;;;;2064239;28;20023;-74
2022/08/22 04:27:39;;;;;;;9.07;6.75;;;14.60;99.90;;;;;;2064148;28;20453;-74
2022/08/22 04:29:26;;;;;;;7.88;7.07;;;14.60;99.90;;;;;;2064161;28;20022;-74
2022/08/22 04:30:37;;;;;;;8.60;7.07;;;14.60;99.90;;;;;;2059118;28;20069;-74
2022/08/22 04:32:07;;;;;;;10.95;6.85;;;14.60;99.90;;;;;;2066368;28;20034;-74
2022/08/22 04:33:31;;;;;;;9.35;7.55;;;14.60;99.90;;;;;;2065095;28;20070;-75
2022/08/22 04:34:40;;;;;;;9.40;7.15;;;14.60;99.90;;;;;;2068233;28;20116;-75
2022/08/22 04:35:51;;;;;;;8.93;7.30;;;14.60;99.90;;;;;;2072611;28;20601;-74
2022/08/22 04:37:00;;;;;;;8.48;7.07;;;14.60;99.90;;;;;;2065301;28;20026;-75
2022/08/22 04:38:17;;;;;;;7.53;6.80;;;14.60;99.90;;;;;;2065290;28;20105;-75
2022/08/22 04:39:23;;;;;;;7.70;6.90;;;14.60;99.90;;;;;;2065253;28;20084;-75
2022/08/22 04:40:44;;;;;;;9.07;7.28;;;14.70;99.90;;;;;;2065269;28;20456;-74
2022/08/22 04:41:58;;;;;;;7.65;6.72;;;14.70;99.90;;;;;;2065875;28;20106;-74
2022/08/22 04:43:17;;;;;;;7.45;6.63;;;14.70;99.90;;;;;;2065749;28;20260;-74
2022/08/22 04:44:34;;;;;;;8.57;6.63;;;14.60;99.90;;;;;;2073282;28;20717;-74
2022/08/22 04:45:40;;;;;;;8.80;6.78;;;14.60;99.90;;;;;;2071697;28;20030;-75
2022/08/22 04:46:56;;;;;;;8.93;6.78;;;14.60;99.90;;;;;;2070860;28;20030;-74
2022/08/22 04:48:08;;;;;;;7.75;6.95;;;14.70;99.90;;;;;;2078521;28;20041;-75
2022/08/22 04:49:23;;;;;;;10.10;7.45;;;14.70;99.90;;;;;;2076538;28;20486;-74
2022/08/22 04:50:34;;;;;;;8.88;7.07;;;14.70;99.90;;;;;;2080151;28;20073;-75
2022/08/22 04:51:48;;;;;;;8.02;7.18;;;14.70;99.90;;;;;;2071724;28;20033;-75
2022/08/22 04:53:17;;;;;;;8.38;7.03;;;14.70;99.90;;;;;;2071683;28;20030;-75
2022/08/22 04:54:42;;;;;;;11.52;7.63;;;14.70;99.90;;;;;;2088009;28;20057;-74
2022/08/22 04:56:05;;;;;;;7.97;7.00;;;14.70;99.90;;;;;;2082014;28;20026;-76
2022/08/22 04:57:22;;;;;;;7.85;7.05;;;14.70;99.90;;;;;;2078940;28;20121;-74
2022/08/22 04:58:22;;;;;;;8.93;6.90;;;14.80;99.90;;;;;;2065477;28;20037;-78
2022/08/22 04:59:23;;;;;;;8.55;7.05;;;14.80;99.90;;;;;;2065767;28;20109;-74
2022/08/22 05:00:24;;;;;;;9.82;7.25;;;14.80;99.90;;;;;;2073748;28;20021;-77
2022/08/22 05:01:39;;;;;;;9.73;7.20;;;14.80;99.90;;;;;;2073539;28;20785;-75
2022/08/22 05:02:47;;;;;;;9.68;7.30;;;14.90;99.90;;;;;;2073512;28;20029;-75
2022/08/22 05:03:57;;;;;;;8.38;7.03;;;14.80;99.90;;;;;;2073565;28;20476;-74
2022/08/22 05:05:26;;;;;;;8.13;6.85;;;14.90;99.90;;;;;;2073622;28;20041;-74
2022/08/22 05:06:31;;;;;;;9.82;7.07;;;14.90;99.90;;;;;;2064760;28;20042;-76
2022/08/22 05:07:40;;;;;;;9.65;7.28;;;15.00;99.90;;;;;;2057738;28;20035;-76
2022/08/22 05:08:43;;;;;;;7.88;6.88;;;15.00;99.90;;;;;;2065674;28;20121;-78
2022/08/22 05:09:52;;;;;;;10.75;7.25;;;15.00;99.90;;;;;;2065855;28;20520;-78
2022/08/22 05:10:53;;;;;;;8.10;6.82;;;15.00;99.90;;;;;;2065535;28;20054;-78
2022/08/22 05:12:00;;;;;;;8.57;6.97;;;15.00;99.90;;;;;;2081822;28;20029;-76
2022/08/22 05:13:15;;;;;;;8.90;7.20;;;15.00;99.90;;;;;;2080767;28;20352;-76
2022/08/22 05:14:40;;;;;;;8.82;7.30;;;15.00;99.90;;;;;;2065143;28;20050;-75
2022/08/22 05:15:46;;;;;;;7.68;6.88;;;15.10;99.90;;;;;;2058789;28;20124;-76
2022/08/22 05:16:50;;;;;;;12.23;7.10;;;15.10;99.90;;;;;;2065574;28;20109;-77
2022/08/22 05:17:54;;;;;;;7.68;6.65;;;15.10;99.90;;;;;;2065541;28;20069;-76
2022/08/22 05:19:06;;;;;;;8.50;7.00;;;15.10;99.90;;;;;;2065495;28;20018;-77
2022/08/22 05:20:11;;;;;;;7.85;6.70;;;15.10;99.90;;;;;;2065288;28;20045;-75
2022/08/22 05:21:13;;;;;;;8.23;6.45;;;15.20;99.90;;;;;;2065836;28;20405;-77
2022/08/22 05:22:23;;;;;;;7.22;6.53;;;15.20;99.90;;;;;;2065628;28;20026;-76
2022/08/22 05:23:41;;;;;;;8.57;6.30;;;15.20;99.90;;;;;;2065820;28;20037;-76
2022/08/22 05:24:47;;;;;;;6.90;6.30;;;15.30;99.90;;;;;;2066144;28;20031;-76
2022/08/22 05:25:52;;;;;;;7.60;6.50;;;15.30;99.90;;;;;;2065264;28;20037;-77
2022/08/22 05:26:55;;;;;;;7.50;6.40;;;15.30;99.90;;;;;;2064936;28;20133;-76
2022/08/22 05:28:19;;;;;;;7.30;6.60;;;15.30;99.90;;;;;;2064761;28;20120;-75
2022/08/22 05:29:25;;;;;;;7.32;6.45;;;15.40;99.90;;;;;;2065520;28;20111;-75
2022/08/22 05:30:30;;;;;;;8.88;6.20;;;15.40;99.90;;;;;;2065110;28;20032;-76
2022/08/22 05:31:34;;;;;;;8.65;6.50;;;15.50;99.90;;;;;;2065063;28;20121;-76
2022/08/22 05:32:55;;;;;;;7.03;6.32;;;15.50;99.90;;;;;;2065178;28;20038;-75
2022/08/22 05:34:05;;;;;;;9.82;6.78;;;15.50;99.90;;;;;;2065307;28;20492;-76
2022/08/22 05:35:08;;;;;;;7.82;6.43;;;15.50;99.90;;;;;;2065154;28;20133;-76
2022/08/22 05:36:14;;;;;;;8.02;6.50;;;15.60;99.90;;;;;;2065193;28;20511;-76
2022/08/22 05:37:20;;;;;;;7.25;6.50;;;15.60;99.90;;;;;;2065814;28;20022;-75
2022/08/22 05:38:28;;;;;;;11.45;6.68;;;15.60;99.90;;;;;;2065490;28;20033;-75
2022/08/22 05:39:29;;;;;;;7.28;6.57;;;15.60;99.90;;;;;;2065244;28;20022;-75
2022/08/22 05:40:33;;;;;;;10.48;6.68;;;15.60;99.90;;;;;;2064876;28;20551;-77
2022/08/22 05:41:39;;;;;;;12.88;6.93;;;15.70;99.90;;;;;;2065549;28;20040;-76
2022/08/22 05:42:41;;;;;;;9.57;6.82;;;15.70;99.90;;;;;;2065871;28;20476;-77
2022/08/22 05:43:44;;;;;;;8.98;6.57;;;15.70;99.90;;;;;;2065577;28;20041;-76
2022/08/22 05:44:45;;;;;;;9.57;6.63;;;15.80;99.90;;;;;;2065197;28;20019;-75
2022/08/22 05:45:47;;;;;;;8.27;6.68;;;15.70;99.90;;;;;;2065730;28;20455;-75
2022/08/22 05:47:23;;;;;;;8.07;6.32;;;15.80;99.90;;;;;;2073012;28;20021;-76
2022/08/22 05:48:39;;;;;;;8.18;6.60;;;15.80;99.90;;;;;;2056882;28;20105;-74
2022/08/22 05:49:56;;;;;;;9.63;6.35;;;15.90;99.90;;;;;;2073457;28;20021;-75
2022/08/22 05:51:11;;;;;;;6.85;6.15;;;15.80;99.90;;;;;;2073063;28;20041;-76
2022/08/22 05:52:36;;;;;;;9.70;6.63;;;15.90;99.90;;;;;;2071567;28;20030;-75
2022/08/22 05:53:41;;;;;;;9.05;7.25;;;15.90;99.90;;;;;;2074721;28;20120;-75
2022/08/22 05:54:56;;;;;;;9.50;6.80;;;16.00;99.90;;;;;;2063181;28;20038;-75
2022/08/22 05:56:09;;;;;;;7.68;6.85;;;16.00;99.90;;;;;;2067004;28;20130;-75
2022/08/22 05:57:36;;;;;;;7.53;6.82;;;16.00;99.90;;;;;;2073096;28;20042;-76
2022/08/22 05:59:32;;;;;;;9.18;6.63;;;16.10;99.90;;;;;;2073228;28;20100;-76
2022/08/22 06:00:38;;;;;;;7.60;6.80;;;16.10;99.90;;;;;;2068572;28;20038;-76
2022/08/22 06:02:18;;;;;;;8.93;7.00;;;16.20;99.90;;;;;;2065504;28;20487;-74
2022/08/22 06:03:21;;;;;;;9.50;7.07;;;16.20;99.90;;;;;;2073354;28;20076;-74
2022/08/22 06:04:31;;;;;;;10.48;7.07;;;16.20;99.90;;;;;;2064111;28;20049;-75
2022/08/22 06:05:38;;;;;;;8.65;6.80;;;16.20;99.90;;;;;;2065846;28;20441;-77
2022/08/22 06:06:55;;;;;;;11.38;7.03;;;16.30;99.90;;;;;;2072506;28;20555;-76
2022/08/22 06:08:22;;;;;;;11.18;7.55;;;16.30;99.90;;;;;;2073470;28;20030;-77
2022/08/22 06:09:25;;;;;;;8.68;7.05;;;16.40;99.90;;;;;;2073838;28;20041;-74
2022/08/22 06:10:42;;;;;;;10.55;6.80;;;16.40;99.90;;;;;;2065180;28;20113;-75
2022/08/22 06:11:58;;;;;;;10.30;7.85;;;16.40;99.90;;;;;;2067669;28;20030;-77
2022/08/22 06:13:31;;;;;;;8.98;6.75;;;16.40;99.90;;;;;;2080663;28;20033;-76
2022/08/22 06:14:55;;;;;;;10.25;6.60;;;16.50;99.90;;;;;;2065538;28;20034;-74
2022/08/22 06:16:08;;;;;;;9.98;7.15;;;16.60;99.90;;;;;;2073707;28;20036;-77
2022/08/22 06:17:24;;;;;;;9.77;7.40;;;16.60;99.90;;;;;;2080073;28;20105;-74
2022/08/22 06:18:26;;;;;;;8.27;7.30;;;16.70;99.90;;;;;;2073228;28;20261;-72
2022/08/22 06:19:27;;;;;;;9.20;7.03;;;16.70;99.90;;;;;;2073325;28;20033;-73
2022/08/22 06:20:50;;;;;;;7.78;6.65;;;16.70;99.90;;;;;;2073808;28;20044;-74
2022/08/22 06:21:53;;;;;;;8.07;7.25;;;16.80;99.90;;;;;;2073841;28;20033;-76
2022/08/22 06:22:58;;;;;;;11.20;9.23;;;16.80;99.90;;;;;;2065855;28;20052;-74
2022/08/22 06:24:01;;;;;;;9.00;7.82;;;16.80;99.90;;;;;;2050861;28;20521;-75
2022/08/22 06:25:12;;;;;;;9.13;7.70;;;16.90;99.90;;;;;;2066576;28;20031;-77
2022/08/22 06:26:19;;;;;;;9.27;7.25;;;16.90;99.90;;;;;;2075762;28;20558;-73
2022/08/22 06:27:23;;;;;;;8.30;6.85;;;16.90;99.90;;;;;;2069059;28;20192;-75
2022/08/22 06:28:44;;;;;;;9.75;7.63;;;16.90;99.90;;;;;;2063064;28;20027;-77
2022/08/22 06:29:50;;;;;;;9.73;7.85;;;17.00;99.90;;;;;;2070640;28;20031;-76
2022/08/22 06:30:54;;;;;;;10.52;8.13;;;17.00;99.90;;;;;;2067412;28;20077;-76
2022/08/22 06:31:56;;;;;;;10.40;8.68;;;17.00;99.90;;;;;;2072480;28;20532;-75
2022/08/22 06:33:04;;;;;;;9.98;7.82;;;17.00;99.90;;;;;;2073650;28;20037;-75
2022/08/22 06:34:14;;;;;;;10.40;7.55;;;17.10;99.90;;;;;;2073347;28;20040;-76
2022/08/22 06:35:27;;;;;;;10.02;7.28;;;17.10;99.90;;;;;;2072906;28;20079;-78
2022/08/22 06:36:31;;;;;;;8.65;7.45;;;17.10;99.90;;;;;;2073171;28;20064;-74
2022/08/22 06:37:38;;;;;;;9.05;7.38;;;17.20;99.90;;;;;;2073351;28;20405;-74
2022/08/22 06:39:05;;;;;;;9.35;7.53;;;17.20;99.90;;;;;;2073386;28;20485;-74
2022/08/22 06:40:09;;;;;;;9.02;7.38;;;17.20;99.90;;;;;;2064326;28;20188;-74
2022/08/22 06:41:10;;;;;;;7.88;6.88;;;17.20;99.90;;;;;;2064768;28;20014;-74
2022/08/22 06:42:31;;;;;;;7.47;6.68;;;17.20;99.90;;;;;;2073083;28;20022;-75
2022/08/22 06:43:37;;;;;;;9.38;7.20;;;17.30;99.90;;;;;;2072335;28;20563;-74
2022/08/22 06:44:47;;;;;;;14.95;9.48;;;17.30;99.90;;;;;;2072374;28;20065;-74
2022/08/22 06:45:48;;;;;;;12.65;8.75;;;17.30;99.90;;;;;;2073035;28;20083;-74
2022/08/22 06:46:53;;;;;;;10.55;8.05;;;17.30;99.90;;;;;;2073009;28;20113;-75
2022/08/22 06:48:15;;;;;;;10.15;7.78;;;17.30;99.90;;;;;;2072133;28;20029;-75
2022/08/22 06:49:16;;;;;;;9.05;7.57;;;17.40;99.90;;;;;;2071561;28;20026;-74
2022/08/22 06:50:29;;;;;;;11.05;8.10;;;17.40;99.90;;;;;;2072594;28;20030;-75
2022/08/22 06:51:31;;;;;;;14.23;9.13;;;17.40;99.90;;;;;;2072945;28;20024;-75
2022/08/22 06:52:45;;;;;;;13.07;7.80;;;17.40;99.90;;;;;;2073213;28;20030;-75
2022/08/22 06:53:49;;;;;;;10.52;8.13;;;17.40;99.90;;;;;;2072699;28;20021;-75
2022/08/22 06:55:01;;;;;;;11.07;7.45;;;17.50;99.90;;;;;;2072840;28;20014;-74
2022/08/22 06:56:04;;;;;;;8.82;6.68;;;17.60;99.90;;;;;;2072741;28;20018;-76
2022/08/22 06:57:10;;;;;;;16.45;9.27;;;17.60;99.90;;;;;;2072655;28;20033;-75
2022/08/22 06:58:15;;;;;;;12.30;8.70;;;17.60;99.90;;;;;;2072312;28;20073;-76
2022/08/22 06:59:22;;;;;;;9.75;7.72;;;17.60;99.90;;;;;;2073067;28;20107;-74
2022/08/22 07:00:24;;;;;;;9.90;7.57;;;17.60;99.90;;;;;;2073041;28;20499;-75